createdAt,value
2019-02-18T00:00:53.760Z,56.90
2019-02-18T00:03:22.061Z,56.90
2019-02-18T00:05:50.408Z,56.40
2019-02-18T00:08:18.675Z,55.50
2019-02-18T00:10:46.927Z,55.50
2019-02-18T00:13:15.977Z,56.20
2019-02-18T00:15:44.357Z,56.20
2019-02-18T00:18:12.711Z,56.20
2019-02-18T00:20:41.032Z,56.10
2019-02-18T00:23:10.076Z,56.80
2019-02-18T00:25:38.351Z,56.80
2019-02-18T00:28:06.618Z,57.10
2019-02-18T00:30:34.941Z,57.30
2019-02-18T00:33:04.034Z,57.20
2019-02-18T00:35:32.372Z,57.20
2019-02-18T00:38:00.771Z,57.20
2019-02-18T00:40:29.056Z,58.00
2019-02-18T00:42:57.445Z,59.00
2019-02-18T00:45:26.538Z,59.10
2019-02-18T00:47:54.877Z,59.10
2019-02-18T00:50:23.170Z,58.60
2019-02-18T00:52:51.553Z,58.40
2019-02-18T00:55:19.835Z,58.20
2019-02-18T00:57:48.928Z,58.40
2019-02-18T01:00:17.203Z,58.40
2019-02-18T01:02:45.474Z,59.80
2019-02-18T01:05:13.761Z,60.60
2019-02-18T01:07:42.099Z,61.20
2019-02-18T01:10:11.434Z,61.30
2019-02-18T01:12:39.715Z,62.10
2019-02-18T01:15:11.249Z,63.00
2019-02-18T01:17:39.520Z,63.00
2019-02-18T01:20:07.829Z,62.30
2019-02-18T01:22:36.867Z,60.40
2019-02-18T01:25:05.180Z,60.40
2019-02-18T01:27:33.523Z,59.90
2019-02-18T01:30:01.799Z,59.50
2019-02-18T01:32:30.077Z,59.80
2019-02-18T01:34:58.346Z,60.00
2019-02-18T01:37:26.731Z,59.50
2019-02-18T01:39:55.115Z,59.30
2019-02-18T01:42:23.437Z,59.30
2019-02-18T01:44:52.612Z,59.90
2019-02-18T01:47:21.089Z,59.90
2019-02-18T01:49:49.465Z,60.10
2019-02-18T01:52:17.812Z,59.30
2019-02-18T01:54:46.095Z,58.80
2019-02-18T01:57:14.384Z,58.50
2019-02-18T01:59:42.637Z,58.60
2019-02-18T02:02:11.057Z,58.40
2019-02-18T02:04:39.396Z,58.80
2019-02-18T02:07:07.685Z,58.70
2019-02-18T02:09:35.994Z,58.60
2019-02-18T02:12:05.032Z,59.00
2019-02-18T02:14:33.295Z,58.90
2019-02-18T02:17:01.583Z,58.80
2019-02-18T02:19:29.897Z,58.40
2019-02-18T02:21:58.165Z,58.90
2019-02-18T02:24:26.519Z,59.50
2019-02-18T02:26:54.931Z,59.70
2019-02-18T02:29:23.169Z,59.70
2019-02-18T02:31:51.419Z,59.50
2019-02-18T02:34:19.727Z,59.30
2019-02-18T02:36:48.004Z,58.80
2019-02-18T02:39:16.386Z,58.60
2019-02-18T02:41:44.647Z,59.10
2019-02-18T02:44:12.924Z,59.50
2019-02-18T02:46:41.244Z,59.40
2019-02-18T02:49:09.580Z,59.80
2019-02-18T02:51:37.956Z,60.50
2019-02-18T02:54:06.223Z,60.10
2019-02-18T02:56:37.271Z,59.70
2019-02-18T02:59:02.829Z,59.50
2019-02-18T03:01:31.163Z,59.60
2019-02-18T03:03:59.434Z,59.80
2019-02-18T03:06:27.703Z,59.90
2019-02-18T03:08:56.083Z,59.90
2019-02-18T03:11:24.351Z,60.20
2019-02-18T03:13:52.639Z,60.60
2019-02-18T03:16:20.940Z,60.60
2019-02-18T03:18:49.293Z,61.10
2019-02-18T03:21:17.560Z,61.30
2019-02-18T03:23:45.853Z,61.50
2019-02-18T03:26:14.163Z,61.90
2019-02-18T03:29:05.136Z,62.60
2019-02-18T03:31:33.461Z,62.90
2019-02-18T03:34:05.962Z,63.30
2019-02-18T03:36:34.261Z,63.30
2019-02-18T03:39:02.544Z,63.90
2019-02-18T03:41:30.823Z,64.80
2019-02-18T03:43:59.209Z,65.20
2019-02-18T03:46:27.551Z,65.60
2019-02-18T03:48:55.933Z,65.80
2019-02-18T03:51:24.232Z,66.30
2019-02-18T03:53:52.590Z,66.20
2019-02-18T03:56:20.848Z,65.60
2019-02-18T03:58:49.100Z,64.20
2019-02-18T04:01:18.129Z,63.30
2019-02-18T04:03:46.382Z,63.30
2019-02-18T04:06:15.397Z,63.40
2019-02-18T04:08:43.688Z,63.40
2019-02-18T04:11:11.924Z,63.60
2019-02-18T04:13:40.977Z,64.10
2019-02-18T04:16:09.238Z,64.10
2019-02-18T04:18:37.492Z,64.80
2019-02-18T04:21:05.753Z,64.90
2019-02-18T04:23:34.181Z,64.60
2019-02-18T04:26:02.461Z,64.90
2019-02-18T04:28:30.794Z,65.80
2019-02-18T04:30:59.167Z,67.30
2019-02-18T04:33:27.347Z,67.00
2019-02-18T04:35:55.627Z,67.20
2019-02-18T04:38:23.891Z,67.50
2019-02-18T04:40:52.316Z,67.40
2019-02-18T04:43:20.588Z,67.80
2019-02-18T04:45:48.858Z,67.50
2019-02-18T04:48:17.129Z,67.00
2019-02-18T04:50:45.594Z,67.00
2019-02-18T04:53:13.856Z,67.30
2019-02-18T04:55:42.136Z,67.40
2019-02-18T04:58:10.418Z,67.90
2019-02-18T05:00:38.704Z,68.90
2019-02-18T05:03:06.983Z,69.50
2019-02-18T05:05:35.262Z,69.60
2019-02-18T05:08:03.644Z,69.30
2019-02-18T05:10:31.924Z,69.80
2019-02-18T05:13:00.214Z,70.20
2019-02-18T05:15:29.356Z,69.60
2019-02-18T05:17:57.626Z,69.60
2019-02-18T05:20:26.052Z,68.80
2019-02-18T05:22:54.355Z,67.20
2019-02-18T05:25:23.427Z,66.10
2019-02-18T05:27:51.758Z,66.10
2019-02-18T05:30:20.048Z,66.10
2019-02-18T05:32:48.444Z,66.30
2019-02-18T05:35:16.701Z,66.80
2019-02-18T05:37:44.968Z,66.90
2019-02-18T05:40:13.261Z,67.50
2019-02-18T05:42:41.533Z,67.60
2019-02-18T05:45:09.807Z,67.40
2019-02-18T05:47:38.193Z,67.30
2019-02-18T05:50:06.470Z,67.10
2019-02-18T05:52:36.423Z,67.60
2019-02-18T05:55:06.400Z,67.80
2019-02-18T05:57:34.687Z,67.80
2019-02-18T06:00:03.014Z,68.30
2019-02-18T06:02:31.299Z,68.50
2019-02-18T06:04:59.597Z,68.80
2019-02-18T06:07:27.861Z,68.40
2019-02-18T06:09:56.163Z,68.00
2019-02-18T06:12:24.457Z,68.90
2019-02-18T06:14:53.597Z,67.50
2019-02-18T06:17:21.901Z,67.50
2019-02-18T06:19:53.210Z,66.80
2019-02-18T06:22:22.683Z,66.40
2019-02-18T06:24:51.035Z,66.70
2019-02-18T06:27:19.298Z,66.50
2019-02-18T06:29:47.583Z,66.60
2019-02-18T06:32:16.741Z,65.00
2019-02-18T06:34:45.032Z,65.50
2019-02-18T06:37:13.400Z,65.40
2019-02-18T06:39:42.088Z,64.80
2019-02-18T06:42:11.226Z,64.60
2019-02-18T06:44:38.345Z,64.20
2019-02-18T06:47:06.653Z,64.30
2019-02-18T06:49:35.795Z,66.30
2019-02-18T06:52:04.088Z,66.30
2019-02-18T06:54:32.373Z,66.90
2019-02-18T06:57:01.444Z,67.20
2019-02-18T06:59:30.294Z,67.00
2019-02-18T07:01:59.149Z,66.30
2019-02-18T07:04:31.354Z,65.60
2019-02-18T07:06:59.574Z,66.00
2019-02-18T07:09:30.364Z,66.80
2019-02-18T07:11:58.659Z,67.00
2019-02-18T07:14:26.945Z,67.40
2019-02-18T07:16:55.361Z,67.30
2019-02-18T07:19:23.643Z,67.30
2019-02-18T07:21:52.708Z,67.80
2019-02-18T07:24:20.979Z,67.80
2019-02-18T07:26:49.344Z,67.50
2019-02-18T07:29:17.623Z,67.50
2019-02-18T07:31:45.906Z,67.20
2019-02-18T07:34:14.843Z,66.90
2019-02-18T07:36:43.209Z,66.80
2019-02-18T07:39:11.577Z,66.40
2019-02-18T07:41:39.927Z,65.60
2019-02-18T07:44:08.211Z,65.00
2019-02-18T07:46:36.571Z,65.00
2019-02-18T07:49:04.860Z,64.70
2019-02-18T07:51:33.151Z,64.30
2019-02-18T07:54:01.434Z,64.20
2019-02-18T07:56:29.783Z,63.40
2019-02-18T07:58:58.194Z,63.30
2019-02-18T08:01:26.451Z,62.60
2019-02-18T08:03:54.807Z,62.60
2019-02-18T08:06:23.074Z,62.90
2019-02-18T08:08:51.359Z,61.70
2019-02-18T08:11:19.634Z,60.90
2019-02-18T08:13:48.035Z,61.00
2019-02-18T08:16:16.337Z,60.90
2019-02-18T08:18:45.375Z,59.90
2019-02-18T08:21:13.663Z,59.60
2019-02-18T08:23:41.943Z,59.80
2019-02-18T08:26:10.208Z,59.70
2019-02-18T08:28:38.482Z,58.90
2019-02-18T08:31:06.759Z,58.60
2019-02-18T08:33:35.021Z,57.50
2019-02-18T08:36:04.133Z,55.80
2019-02-18T08:38:32.536Z,55.80
2019-02-18T08:41:00.779Z,55.30
2019-02-18T08:43:29.065Z,55.60
2019-02-18T08:45:57.312Z,55.50
2019-02-18T08:48:26.343Z,49.60
2019-02-18T08:50:54.814Z,49.70
2019-02-18T08:53:23.143Z,48.30
2019-02-18T08:55:52.172Z,43.40
2019-02-18T08:58:20.435Z,43.40
2019-02-18T09:00:48.740Z,42.60
2019-02-18T09:03:17.123Z,42.70
2019-02-18T09:05:45.399Z,42.40
2019-02-18T09:08:13.666Z,41.80
2019-02-18T09:10:42.061Z,42.30
2019-02-18T09:13:10.414Z,43.10
2019-02-18T09:15:38.683Z,40.90
2019-02-18T09:18:06.988Z,40.90
2019-02-18T09:20:35.369Z,40.70
2019-02-18T09:23:03.686Z,41.00
2019-02-18T09:25:32.790Z,41.70
2019-02-18T09:28:01.122Z,41.50
2019-02-18T09:30:29.391Z,40.20
2019-02-18T09:32:57.758Z,39.20
2019-02-18T09:35:26.034Z,39.70
2019-02-18T09:37:54.383Z,38.80
2019-02-18T09:40:22.714Z,38.80
2019-02-18T09:42:51.769Z,38.30
2019-02-18T09:45:20.040Z,37.80
2019-02-18T09:47:48.311Z,37.20
2019-02-18T09:50:16.636Z,36.70
2019-02-18T09:52:44.963Z,36.80
2019-02-18T09:55:13.252Z,35.50
2019-02-18T09:57:41.619Z,34.90
2019-02-18T10:00:09.947Z,34.10
2019-02-18T10:02:38.983Z,33.10
2019-02-18T10:05:07.258Z,33.10
2019-02-18T10:07:35.560Z,33.50
2019-02-18T10:10:04.986Z,32.20
2019-02-18T10:12:34.060Z,31.20
2019-02-18T10:15:02.411Z,31.20
2019-02-18T10:17:30.712Z,30.50
2019-02-18T10:19:59.015Z,30.60
2019-02-18T10:22:28.163Z,30.00
2019-02-18T10:24:56.455Z,30.00
2019-02-18T10:27:24.811Z,29.20
2019-02-18T10:29:53.116Z,29.50
2019-02-18T10:32:22.896Z,29.00
2019-02-18T10:34:51.273Z,28.90
2019-02-18T10:37:19.589Z,29.60
2019-02-18T10:39:47.932Z,29.20
2019-02-18T10:42:16.217Z,29.80
2019-02-18T10:44:44.691Z,28.80
2019-02-18T10:47:13.129Z,28.80
2019-02-18T10:49:41.416Z,28.80
2019-02-18T10:52:09.719Z,28.70
2019-02-18T10:54:37.990Z,28.70
2019-02-18T10:57:06.277Z,28.00
2019-02-18T10:59:34.639Z,28.70
2019-02-18T11:02:02.935Z,27.20
2019-02-18T11:04:31.241Z,27.60
2019-02-18T11:07:00.287Z,27.20
2019-02-18T11:09:28.666Z,27.20
2019-02-18T11:11:57.040Z,26.60
2019-02-18T11:14:25.414Z,26.90
2019-02-18T11:16:53.695Z,27.00
2019-02-18T11:19:22.004Z,27.80
2019-02-18T11:21:50.347Z,26.90
2019-02-18T11:24:20.650Z,26.80
2019-02-18T11:26:47.040Z,26.60
2019-02-18T11:29:15.342Z,25.90
2019-02-18T11:31:44.399Z,23.10
2019-02-18T11:34:12.647Z,23.10
2019-02-18T11:36:41.139Z,24.60
2019-02-18T11:39:10.207Z,23.30
2019-02-18T11:41:38.592Z,24.10
2019-02-18T11:44:06.861Z,24.20
2019-02-18T11:46:35.160Z,25.10
2019-02-18T11:49:03.562Z,26.20
2019-02-18T11:51:31.840Z,24.40
2019-02-18T11:54:00.893Z,24.20
2019-02-18T11:56:29.241Z,24.20
2019-02-18T11:58:57.549Z,24.30
2019-02-18T12:01:28.276Z,24.50
2019-02-18T12:03:54.248Z,24.60
2019-02-18T12:06:22.541Z,25.00
2019-02-18T12:08:50.921Z,26.00
2019-02-18T12:11:19.217Z,25.20
2019-02-18T12:13:47.499Z,24.30
2019-02-18T12:16:15.770Z,24.30
2019-02-18T12:18:44.059Z,23.70
2019-02-18T12:21:12.464Z,24.40
2019-02-18T12:23:40.738Z,24.50
2019-02-18T12:26:10.544Z,24.80
2019-02-18T12:28:38.827Z,24.80
2019-02-18T12:31:07.218Z,24.00
2019-02-18T12:33:35.513Z,24.50
2019-02-18T12:36:04.670Z,24.70
2019-02-18T12:38:32.977Z,24.70
2019-02-18T12:41:01.304Z,24.00
2019-02-18T12:43:30.032Z,23.70
2019-02-18T12:45:58.314Z,24.60
2019-02-18T12:48:27.379Z,24.40
2019-02-18T12:50:55.680Z,23.80
2019-02-18T12:53:24.737Z,21.60
2019-02-18T12:55:53.153Z,21.60
2019-02-18T12:58:22.288Z,21.50
2019-02-18T13:00:50.701Z,21.40
2019-02-18T13:03:19.009Z,22.60
2019-02-18T13:05:48.094Z,22.30
2019-02-18T13:08:17.273Z,22.70
2019-02-18T13:10:45.555Z,22.60
2019-02-18T13:13:13.899Z,22.50
2019-02-18T13:15:42.271Z,22.60
2019-02-18T13:18:11.621Z,22.70
2019-02-18T13:20:39.896Z,22.50
2019-02-18T13:23:08.951Z,23.40
2019-02-18T13:25:37.319Z,23.30
2019-02-18T13:28:08.498Z,23.60
2019-02-18T13:30:33.971Z,23.90
2019-02-18T13:33:02.348Z,23.80
2019-02-18T13:35:30.732Z,24.90
2019-02-18T13:37:59.115Z,25.10
2019-02-18T13:40:27.393Z,24.80
2019-02-18T13:42:55.720Z,25.80
2019-02-18T13:45:24.857Z,26.50
2019-02-18T13:47:53.174Z,26.50
2019-02-18T13:50:21.647Z,26.90
2019-02-18T13:52:51.451Z,27.10
2019-02-18T13:55:19.795Z,27.10
2019-02-18T13:57:48.507Z,27.40
2019-02-18T14:00:18.314Z,27.70
2019-02-18T14:02:46.665Z,27.70
2019-02-18T14:05:14.935Z,28.30
2019-02-18T14:07:43.212Z,28.10
2019-02-18T14:10:11.646Z,28.40
2019-02-18T14:12:39.980Z,28.70
2019-02-18T14:15:08.300Z,28.80
2019-02-18T14:17:36.615Z,27.50
2019-02-18T14:20:04.880Z,26.90
2019-02-18T14:22:33.483Z,26.70
2019-02-18T14:25:01.867Z,26.30
2019-02-18T14:27:30.143Z,26.00
2019-02-18T14:29:58.423Z,26.30
2019-02-18T14:32:26.791Z,25.80
2019-02-18T14:34:55.204Z,26.00
2019-02-18T14:37:23.486Z,26.60
2019-02-18T14:39:51.798Z,26.10
2019-02-18T14:42:24.475Z,25.70
2019-02-18T14:44:48.360Z,25.60
2019-02-18T14:47:16.643Z,26.40
2019-02-18T14:49:44.947Z,26.60
2019-02-18T14:52:13.261Z,26.50
2019-02-18T14:54:41.632Z,26.80
2019-02-18T14:57:10.775Z,27.60
2019-02-18T14:59:39.164Z,27.60
2019-02-18T15:02:07.447Z,27.30
2019-02-18T15:04:35.814Z,27.20
2019-02-18T15:07:04.186Z,27.20
2019-02-18T15:09:32.470Z,27.70
2019-02-18T15:12:00.835Z,27.70
2019-02-18T15:14:29.161Z,27.80
2019-02-18T15:16:57.482Z,27.40
2019-02-18T15:19:25.804Z,27.90
2019-02-18T15:21:54.121Z,28.10
2019-02-18T15:24:22.437Z,27.70
2019-02-18T15:26:50.783Z,27.80
2019-02-18T15:29:19.319Z,27.70
2019-02-18T15:31:47.694Z,28.20
2019-02-18T15:34:17.466Z,28.80
2019-02-18T15:36:45.768Z,28.80
2019-02-18T15:39:14.027Z,29.90
2019-02-18T15:41:42.424Z,29.90
2019-02-18T15:44:10.770Z,29.50
2019-02-18T15:46:39.070Z,29.90
2019-02-18T15:49:08.882Z,30.40
2019-02-18T15:51:37.147Z,30.30
2019-02-18T15:54:05.516Z,30.30
2019-02-18T15:56:33.823Z,30.40
2019-02-18T15:59:02.197Z,30.30
2019-02-18T16:01:30.467Z,31.20
2019-02-18T16:03:59.534Z,30.90
2019-02-18T16:06:27.823Z,30.80
2019-02-18T16:08:56.123Z,31.00
2019-02-18T16:11:25.200Z,31.40
2019-02-18T16:13:53.570Z,31.40
2019-02-18T16:16:21.863Z,31.60
2019-02-18T16:18:50.134Z,31.00
2019-02-18T16:21:18.890Z,31.20
2019-02-18T16:23:47.164Z,31.80
2019-02-18T16:26:15.485Z,32.40
2019-02-18T16:28:44.543Z,32.90
2019-02-18T16:31:12.965Z,32.90
2019-02-18T16:33:41.283Z,33.30
2019-02-18T16:36:10.115Z,32.80
2019-02-18T16:38:37.871Z,33.40
2019-02-18T16:41:06.166Z,34.40
2019-02-18T16:43:34.458Z,34.80
2019-02-18T16:46:02.841Z,34.20
2019-02-18T16:48:31.162Z,34.60
2019-02-18T16:50:59.535Z,34.90
2019-02-18T16:53:27.920Z,35.10
2019-02-18T16:55:56.214Z,34.60
2019-02-18T16:58:24.604Z,34.10
2019-02-18T17:00:57.716Z,35.00
2019-02-18T17:03:22.039Z,35.00
2019-02-18T17:05:50.423Z,35.60
2019-02-18T17:08:18.791Z,36.90
2019-02-18T17:10:47.092Z,37.30
2019-02-18T17:13:15.372Z,37.50
2019-02-18T17:15:44.436Z,38.40
2019-02-18T17:18:12.806Z,37.80
2019-02-18T17:20:41.220Z,37.90
2019-02-18T17:23:09.561Z,38.20
2019-02-18T17:25:37.851Z,37.90
2019-02-18T17:28:06.150Z,38.20
2019-02-18T17:30:34.483Z,37.90
2019-02-18T17:33:02.759Z,39.30
2019-02-18T17:35:31.147Z,40.60
2019-02-18T17:37:59.424Z,41.00
2019-02-18T17:40:27.836Z,41.40
2019-02-18T17:42:56.176Z,41.50
2019-02-18T17:45:24.463Z,41.70
2019-02-18T17:47:52.740Z,41.90
2019-02-18T17:50:21.140Z,42.40
2019-02-18T17:52:50.436Z,42.20
2019-02-18T17:55:18.726Z,42.40
2019-02-18T17:57:47.058Z,42.70
2019-02-18T18:00:27.552Z,43.00
2019-02-18T18:02:55.937Z,43.50
2019-02-18T18:05:24.215Z,43.10
2019-02-18T18:07:53.363Z,43.40
2019-02-18T18:10:21.738Z,43.30
2019-02-18T18:12:50.156Z,43.40
2019-02-18T18:15:18.597Z,43.90
2019-02-18T18:17:46.912Z,44.30
2019-02-18T18:20:15.981Z,43.80
2019-02-18T18:22:44.349Z,44.30
2019-02-18T18:25:12.678Z,44.70
2019-02-18T18:27:41.736Z,45.00
2019-02-18T18:30:10.028Z,44.90
2019-02-18T18:32:38.322Z,45.50
2019-02-18T18:35:08.080Z,45.00
2019-02-18T18:37:36.404Z,45.00
2019-02-18T18:40:06.271Z,45.70
2019-02-18T18:42:34.680Z,45.70
2019-02-18T18:45:03.026Z,45.70
2019-02-18T18:47:31.346Z,46.20
2019-02-18T18:50:00.437Z,46.60
2019-02-18T18:52:28.665Z,46.00
2019-02-18T18:54:56.941Z,46.10
2019-02-18T18:57:25.229Z,46.30
2019-02-18T18:59:53.601Z,46.70
2019-02-18T19:02:21.879Z,47.20
2019-02-18T19:04:50.251Z,47.50
2019-02-18T19:07:18.567Z,47.30
2019-02-18T19:09:48.487Z,47.80
2019-02-18T19:12:16.755Z,47.80
2019-02-18T19:14:45.880Z,48.10
2019-02-18T19:17:14.162Z,48.10
2019-02-18T19:19:42.467Z,48.20
2019-02-18T19:22:10.831Z,48.20
2019-02-18T19:24:39.148Z,48.60
2019-02-18T19:27:07.532Z,48.70
2019-02-18T19:29:36.586Z,49.10
2019-02-18T19:32:04.962Z,49.10
2019-02-18T19:34:33.340Z,49.40
2019-02-18T19:37:01.633Z,49.80
2019-02-18T19:39:30.004Z,49.90
2019-02-18T19:41:58.286Z,50.60
2019-02-18T19:44:26.669Z,51.00
2019-02-18T19:46:55.080Z,50.90
2019-02-18T19:49:24.215Z,51.80
2019-02-18T19:51:52.502Z,51.80
2019-02-18T19:54:20.779Z,51.70
2019-02-18T19:56:49.110Z,51.80
2019-02-18T19:59:18.135Z,53.60
2019-02-18T20:01:46.460Z,53.00
2019-02-18T20:04:15.538Z,52.70
2019-02-18T20:06:43.857Z,52.70
2019-02-18T20:09:12.181Z,53.70
2019-02-18T20:11:40.487Z,53.30
2019-02-18T20:14:09.640Z,53.40
2019-02-18T20:16:37.934Z,53.30
2019-02-18T20:19:06.212Z,53.10
2019-02-18T20:21:36.003Z,53.30
2019-02-18T20:24:04.294Z,53.30
2019-02-18T20:26:32.624Z,53.80
2019-02-18T20:29:00.921Z,53.90
2019-02-18T20:31:29.409Z,53.90
2019-02-18T20:33:57.690Z,53.60
2019-02-18T20:36:25.979Z,53.50
2019-02-18T20:38:55.920Z,53.20
2019-02-18T20:41:24.158Z,53.20
2019-02-18T20:43:52.418Z,53.20
2019-02-18T20:46:20.732Z,52.60
2019-02-18T20:48:48.999Z,53.70
2019-02-18T20:51:17.354Z,54.50
2019-02-18T20:53:45.645Z,54.50
2019-02-18T20:56:13.901Z,54.60
2019-02-18T20:58:42.227Z,54.30
2019-02-18T21:01:10.428Z,55.30
2019-02-18T21:03:38.710Z,56.60
2019-02-18T21:06:06.986Z,57.20
2019-02-18T21:08:35.271Z,57.80
2019-02-18T21:11:03.688Z,57.60
2019-02-18T21:13:31.973Z,57.60
2019-02-18T21:16:00.371Z,58.80
2019-02-18T21:18:29.391Z,58.30
2019-02-18T21:20:57.779Z,58.30
2019-02-18T21:23:26.031Z,59.20
2019-02-18T21:25:55.129Z,60.00
2019-02-18T21:28:23.464Z,59.90
2019-02-18T21:30:51.837Z,59.70
2019-02-18T21:33:20.216Z,60.40
2019-02-18T21:35:48.468Z,61.30
2019-02-18T21:38:16.729Z,62.10
2019-02-18T21:40:45.328Z,62.50
2019-02-18T21:43:13.649Z,64.00
2019-02-18T21:45:42.690Z,64.00
2019-02-18T21:48:11.071Z,64.00
2019-02-18T21:50:39.439Z,65.10
2019-02-18T21:53:07.819Z,66.60
2019-02-18T21:55:36.113Z,67.70
2019-02-18T21:58:04.471Z,68.30
2019-02-18T22:00:32.854Z,69.10
2019-02-18T22:03:01.219Z,69.80
2019-02-18T22:05:29.499Z,69.90
2019-02-18T22:07:57.770Z,69.80
2019-02-18T22:10:26.068Z,70.40
2019-02-18T22:12:54.434Z,70.50
2019-02-18T22:15:22.821Z,70.40
2019-02-18T22:17:51.136Z,70.30
2019-02-18T22:20:20.839Z,69.80
2019-02-18T22:22:48.555Z,69.70
2019-02-18T22:25:16.931Z,69.60
2019-02-18T22:27:45.306Z,69.30
2019-02-18T22:30:14.361Z,69.90
2019-02-18T22:32:42.680Z,69.40
2019-02-18T22:35:10.993Z,69.60
2019-02-18T22:37:40.077Z,68.60
2019-02-18T22:40:08.393Z,68.60
2019-02-18T22:42:36.818Z,68.10
2019-02-18T22:45:05.204Z,66.90
2019-02-18T22:47:33.563Z,65.80
2019-02-18T22:50:01.897Z,65.00
2019-02-18T22:52:30.940Z,64.30
2019-02-18T22:54:59.211Z,64.30
2019-02-18T22:57:27.472Z,63.70
2019-02-18T22:59:55.751Z,63.60
2019-02-18T23:02:24.046Z,64.20
2019-02-18T23:04:52.330Z,65.10
2019-02-18T23:07:20.623Z,64.80
2019-02-18T23:09:49.668Z,64.90
2019-02-18T23:12:18.097Z,64.90
2019-02-18T23:14:50.448Z,65.20
2019-02-18T23:17:15.454Z,65.20
2019-02-18T23:19:43.764Z,64.80
2019-02-18T23:22:12.054Z,64.20
2019-02-18T23:24:40.384Z,64.10
2019-02-18T23:27:08.663Z,64.90
2019-02-18T23:29:37.748Z,65.20
2019-02-18T23:32:06.064Z,65.20
2019-02-18T23:34:34.409Z,65.40
2019-02-18T23:37:02.747Z,66.10
2019-02-18T23:39:31.027Z,65.00
2019-02-18T23:41:59.395Z,64.40
2019-02-18T23:44:27.675Z,64.10
2019-02-18T23:46:55.988Z,63.70
2019-02-18T23:49:24.342Z,64.10
2019-02-18T23:51:52.727Z,63.90
2019-02-18T23:54:21.023Z,63.50
2019-02-18T23:56:50.229Z,63.90
2019-02-18T23:59:19.312Z,63.80
